sensor_id;sensor_type;location;lat;lon;timestamp;pressure;altitude;pressure_sealevel;temperature;humidity
42111;BME280;27766;52.174;5.456;2023-12-07T00:00:10;101873.53;;;0.72;100.00
42111;BME280;27766;52.174;5.456;2023-12-07T00:02:37;101868.28;;;0.70;100.00
42111;BME280;27766;52.174;5.456;2023-12-07T00:05:05;101870.63;;;0.67;100.00
42111;BME280;27766;52.174;5.456;2023-12-07T00:07:32;101874.06;;;0.68;100.00
42111;BME280;27766;52.174;5.456;2023-12-07T00:10:00;101875.03;;;0.58;100.00
42111;BME280;27766;52.174;5.456;2023-12-07T00:12:27;101884.78;;;0.52;100.00
42111;BME280;27766;52.174;5.456;2023-12-07T00:14:55;101880.19;;;0.47;100.00
42111;BME280;27766;52.174;5.456;2023-12-07T00:17:22;101880.84;;;0.45;100.00
42111;BME280;27766;52.174;5.456;2023-12-07T00:19:50;101877.19;;;0.41;100.00
42111;BME280;27766;52.174;5.456;2023-12-07T00:22:20;101870.22;;;0.39;100.00
42111;BME280;27766;52.174;5.456;2023-12-07T00:24:48;101871.22;;;0.41;100.00
42111;BME280;27766;52.174;5.456;2023-12-07T00:27:15;101874.44;;;0.38;100.00
42111;BME280;27766;52.174;5.456;2023-12-07T00:29:42;101879.28;;;0.35;100.00
42111;BME280;27766;52.174;5.456;2023-12-07T00:32:10;101867.97;;;0.31;100.00
42111;BME280;27766;52.174;5.456;2023-12-07T00:34:37;101864.66;;;0.33;100.00
42111;BME280;27766;52.174;5.456;2023-12-07T00:37:05;101872.50;;;0.36;100.00
42111;BME280;27766;52.174;5.456;2023-12-07T00:39:32;101861.91;;;0.41;100.00
42111;BME280;27766;52.174;5.456;2023-12-07T00:42:00;101862.81;;;0.42;100.00
42111;BME280;27766;52.174;5.456;2023-12-07T00:44:27;101862.81;;;0.42;100.00
42111;BME280;27766;52.174;5.456;2023-12-07T00:46:54;101864.69;;;0.44;100.00
42111;BME280;27766;52.174;5.456;2023-12-07T00:49:21;101869.91;;;0.46;100.00
42111;BME280;27766;52.174;5.456;2023-12-07T00:51:48;101863.69;;;0.42;100.00
42111;BME280;27766;52.174;5.456;2023-12-07T00:54:15;101873.88;;;0.42;100.00
42111;BME280;27766;52.174;5.456;2023-12-07T00:56:42;101863.34;;;0.38;100.00
42111;BME280;27766;52.174;5.456;2023-12-07T00:59:10;101863.22;;;0.36;100.00
42111;BME280;27766;52.174;5.456;2023-12-07T01:01:37;101865.63;;;0.35;100.00
42111;BME280;27766;52.174;5.456;2023-12-07T01:04:05;101875.06;;;0.36;100.00
42111;BME280;27766;52.174;5.456;2023-12-07T01:06:33;101867.78;;;0.40;100.00
42111;BME280;27766;52.174;5.456;2023-12-07T01:09:00;101865.88;;;0.38;100.00
42111;BME280;27766;52.174;5.456;2023-12-07T01:11:27;101866.53;;;0.35;100.00
42111;BME280;27766;52.174;5.456;2023-12-07T01:13:54;101865.44;;;0.31;100.00
42111;BME280;27766;52.174;5.456;2023-12-07T01:16:21;101860.09;;;0.28;100.00
42111;BME280;27766;52.174;5.456;2023-12-07T01:18:49;101871.28;;;0.30;100.00
42111;BME280;27766;52.174;5.456;2023-12-07T01:21:16;101863.94;;;0.23;100.00
42111;BME280;27766;52.174;5.456;2023-12-07T01:23:43;101873.25;;;0.23;100.00
42111;BME280;27766;52.174;5.456;2023-12-07T01:26:10;101873.00;;;0.20;100.00
42111;BME280;27766;52.174;5.456;2023-12-07T01:28:38;101876.22;;;0.17;100.00
42111;BME280;27766;52.174;5.456;2023-12-07T01:31:05;101882.84;;;0.15;100.00
42111;BME280;27766;52.174;5.456;2023-12-07T01:33:33;101884.28;;;0.11;100.00
42111;BME280;27766;52.174;5.456;2023-12-07T01:36:01;101879.06;;;0.10;100.00
42111;BME280;27766;52.174;5.456;2023-12-07T01:38:28;101882.38;;;0.09;100.00
42111;BME280;27766;52.174;5.456;2023-12-07T01:40:55;101869.28;;;0.04;100.00
42111;BME280;27766;52.174;5.456;2023-12-07T01:43:22;101874.56;;;-0.05;100.00
42111;BME280;27766;52.174;5.456;2023-12-07T01:45:51;101868.81;;;-0.02;100.00
42111;BME280;27766;52.174;5.456;2023-12-07T01:48:22;101879.38;;;0.03;100.00
42111;BME280;27766;52.174;5.456;2023-12-07T01:50:50;101888.34;;;0.09;100.00
42111;BME280;27766;52.174;5.456;2023-12-07T01:53:18;101881.38;;;0.07;100.00
42111;BME280;27766;52.174;5.456;2023-12-07T01:55:46;101886.03;;;0.12;100.00
42111;BME280;27766;52.174;5.456;2023-12-07T01:58:17;101891.78;;;0.10;100.00
42111;BME280;27766;52.174;5.456;2023-12-07T02:00:45;101882.75;;;0.13;100.00
42111;BME280;27766;52.174;5.456;2023-12-07T02:03:12;101871.78;;;0.14;100.00
42111;BME280;27766;52.174;5.456;2023-12-07T02:05:46;101888.19;;;0.18;100.00
42111;BME280;27766;52.174;5.456;2023-12-07T02:08:14;101886.16;;;0.14;100.00
42111;BME280;27766;52.174;5.456;2023-12-07T02:10:41;101884.53;;;0.14;100.00
42111;BME280;27766;52.174;5.456;2023-12-07T02:13:09;101885.13;;;0.12;100.00
42111;BME280;27766;52.174;5.456;2023-12-07T05:02:59;101895.84;;;0.52;100.00
42111;BME280;27766;52.174;5.456;2023-12-07T05:05:26;101893.38;;;0.54;100.00
42111;BME280;27766;52.174;5.456;2023-12-07T05:07:54;101879.53;;;0.50;100.00
42111;BME280;27766;52.174;5.456;2023-12-07T05:10:21;101887.53;;;0.55;100.00
42111;BME280;27766;52.174;5.456;2023-12-07T05:12:48;101880.78;;;0.55;100.00
42111;BME280;27766;52.174;5.456;2023-12-07T05:15:15;101881.22;;;0.50;100.00
42111;BME280;27766;52.174;5.456;2023-12-07T05:17:42;101872.19;;;0.43;100.00
42111;BME280;27766;52.174;5.456;2023-12-07T05:20:10;101875.00;;;0.46;100.00
42111;BME280;27766;52.174;5.456;2023-12-07T05:22:39;101879.06;;;0.44;100.00
42111;BME280;27766;52.174;5.456;2023-12-07T05:25:06;101880.50;;;0.40;100.00
42111;BME280;27766;52.174;5.456;2023-12-07T05:27:34;101875.31;;;0.39;100.00
42111;BME280;27766;52.174;5.456;2023-12-07T05:30:02;101872.31;;;0.33;100.00
42111;BME280;27766;52.174;5.456;2023-12-07T05:32:29;101866.09;;;0.29;100.00
42111;BME280;27766;52.174;5.456;2023-12-07T05:34:56;101865.63;;;0.23;100.00
42111;BME280;27766;52.174;5.456;2023-12-07T05:37:23;101861.72;;;0.16;100.00
42111;BME280;27766;52.174;5.456;2023-12-07T05:39:50;101876.56;;;0.22;100.00
42111;BME280;27766;52.174;5.456;2023-12-07T05:42:17;101870.47;;;0.20;100.00
42111;BME280;27766;52.174;5.456;2023-12-07T05:44:45;101863.25;;;0.14;100.00
42111;BME280;27766;52.174;5.456;2023-12-07T05:47:12;101853.72;;;0.11;100.00
42111;BME280;27766;52.174;5.456;2023-12-07T05:49:40;101860.69;;;0.14;100.00
42111;BME280;27766;52.174;5.456;2023-12-07T05:52:07;101850.16;;;0.09;100.00
42111;BME280;27766;52.174;5.456;2023-12-07T05:54:35;101856.91;;;0.09;100.00
42111;BME280;27766;52.174;5.456;2023-12-07T05:57:02;101860.88;;;0.05;100.00
42111;BME280;27766;52.174;5.456;2023-12-07T05:59:29;101865.06;;;0.05;100.00
42111;BME280;27766;52.174;5.456;2023-12-07T06:01:56;101869.75;;;0.10;100.00
42111;BME280;27766;52.174;5.456;2023-12-07T06:04:23;101863.13;;;0.12;100.00
42111;BME280;27766;52.174;5.456;2023-12-07T06:06:50;101864.16;;;0.14;100.00
42111;BME280;27766;52.174;5.456;2023-12-07T06:09:18;101860.47;;;0.11;100.00
42111;BME280;27766;52.174;5.456;2023-12-07T06:11:45;101860.19;;;0.18;100.00
42111;BME280;27766;52.174;5.456;2023-12-07T06:14:12;101873.38;;;0.24;100.00
42111;BME280;27766;52.174;5.456;2023-12-07T06:16:39;101880.25;;;0.25;100.00
42111;BME280;27766;52.174;5.456;2023-12-07T06:19:07;101871.03;;;0.27;100.00
42111;BME280;27766;52.174;5.456;2023-12-07T06:21:35;101879.47;;;0.26;100.00
42111;BME280;27766;52.174;5.456;2023-12-07T06:24:02;101866.25;;;0.20;100.00
42111;BME280;27766;52.174;5.456;2023-12-07T06:26:29;101877.69;;;0.25;100.00
42111;BME280;27766;52.174;5.456;2023-12-07T06:28:56;101881.72;;;0.34;100.00
42111;BME280;27766;52.174;5.456;2023-12-07T06:31:24;101884.78;;;0.29;100.00
42111;BME280;27766;52.174;5.456;2023-12-07T06:33:51;101874.78;;;0.21;100.00
42111;BME280;27766;52.174;5.456;2023-12-07T06:36:19;101891.31;;;0.26;100.00
42111;BME280;27766;52.174;5.456;2023-12-07T06:38:47;101898.06;;;0.25;100.00
42111;BME280;27766;52.174;5.456;2023-12-07T06:41:15;101890.91;;;0.31;100.00
42111;BME280;27766;52.174;5.456;2023-12-07T06:43:43;101885.81;;;0.31;100.00
42111;BME280;27766;52.174;5.456;2023-12-07T06:46:15;101889.50;;;0.47;100.00
42111;BME280;27766;52.174;5.456;2023-12-07T06:48:43;101897.72;;;0.55;100.00
42111;BME280;27766;52.174;5.456;2023-12-07T06:51:11;101893.75;;;0.58;100.00
42111;BME280;27766;52.174;5.456;2023-12-07T06:53:41;101896.47;;;0.72;100.00
42111;BME280;27766;52.174;5.456;2023-12-07T06:56:08;101890.81;;;0.76;100.00
42111;BME280;27766;52.174;5.456;2023-12-07T06:58:36;101867.50;;;0.59;100.00
42111;BME280;27766;52.174;5.456;2023-12-07T07:01:03;101891.72;;;0.76;100.00
42111;BME280;27766;52.174;5.456;2023-12-07T07:03:34;101892.59;;;0.77;100.00
42111;BME280;27766;52.174;5.456;2023-12-07T07:06:02;101891.81;;;0.78;100.00
42111;BME280;27766;52.174;5.456;2023-12-07T07:08:30;101890.59;;;0.85;100.00
42111;BME280;27766;52.174;5.456;2023-12-07T07:10:57;101897.59;;;0.87;100.00
42111;BME280;27766;52.174;5.456;2023-12-07T07:13:25;101875.00;;;0.80;100.00
42111;BME280;27766;52.174;5.456;2023-12-07T07:15:52;101888.63;;;0.92;100.00
42111;BME280;27766;52.174;5.456;2023-12-07T07:18:21;101882.88;;;0.95;100.00
42111;BME280;27766;52.174;5.456;2023-12-07T07:20:51;101894.84;;;0.96;100.00
42111;BME280;27766;52.174;5.456;2023-12-07T07:23:18;101886.59;;;0.88;100.00
42111;BME280;27766;52.174;5.456;2023-12-07T07:25:45;101891.72;;;0.88;100.00
42111;BME280;27766;52.174;5.456;2023-12-07T07:28:13;101897.47;;;0.86;100.00
42111;BME280;27766;52.174;5.456;2023-12-07T07:30:41;101903.03;;;0.80;100.00
42111;BME280;27766;52.174;5.456;2023-12-07T07:33:08;101894.81;;;0.84;100.00
42111;BME280;27766;52.174;5.456;2023-12-07T07:35:35;101893.28;;;0.86;100.00
42111;BME280;27766;52.174;5.456;2023-12-07T07:38:02;101899.03;;;0.84;100.00
42111;BME280;27766;52.174;5.456;2023-12-07T07:40:30;101912.09;;;0.76;100.00
42111;BME280;27766;52.174;5.456;2023-12-07T07:42:57;101905.66;;;0.70;100.00
42111;BME280;27766;52.174;5.456;2023-12-07T07:45:24;101907.84;;;0.65;100.00
42111;BME280;27766;52.174;5.456;2023-12-07T07:47:51;101894.75;;;0.60;100.00
42111;BME280;27766;52.174;5.456;2023-12-07T07:50:19;101899.03;;;0.50;100.00
42111;BME280;27766;52.174;5.456;2023-12-07T07:52:46;101900.06;;;0.52;100.00
42111;BME280;27766;52.174;5.456;2023-12-07T07:55:13;101909.84;;;0.57;100.00
42111;BME280;27766;52.174;5.456;2023-12-07T07:57:40;101907.81;;;0.53;100.00
42111;BME280;27766;52.174;5.456;2023-12-07T08:00:08;101896.09;;;0.55;100.00
42111;BME280;27766;52.174;5.456;2023-12-07T08:02:35;101899.41;;;0.54;100.00
42111;BME280;27766;52.174;5.456;2023-12-07T08:05:04;101905.72;;;0.59;100.00
42111;BME280;27766;52.174;5.456;2023-12-07T08:07:32;101902.72;;;0.53;100.00
42111;BME280;27766;52.174;5.456;2023-12-07T08:09:59;101911.47;;;0.57;100.00
42111;BME280;27766;52.174;5.456;2023-12-07T08:12:26;101911.13;;;0.52;100.00
42111;BME280;27766;52.174;5.456;2023-12-07T08:14:53;101902.25;;;0.47;100.00
42111;BME280;27766;52.174;5.456;2023-12-07T08:17:21;101903.25;;;0.49;100.00
42111;BME280;27766;52.174;5.456;2023-12-07T08:19:48;101899.72;;;0.47;100.00
42111;BME280;27766;52.174;5.456;2023-12-07T08:22:16;101890.28;;;0.46;100.00
42111;BME280;27766;52.174;5.456;2023-12-07T08:24:43;101902.72;;;0.53;100.00
42111;BME280;27766;52.174;5.456;2023-12-07T08:27:12;101905.50;;;0.56;100.00
42111;BME280;27766;52.174;5.456;2023-12-07T08:29:39;101904.75;;;0.57;100.00
42111;BME280;27766;52.174;5.456;2023-12-07T08:32:06;101904.81;;;0.47;100.00
42111;BME280;27766;52.174;5.456;2023-12-07T08:34:34;101899.72;;;0.47;100.00
42111;BME280;27766;52.174;5.456;2023-12-07T08:37:05;101908.00;;;0.44;100.00
42111;BME280;27766;52.174;5.456;2023-12-07T08:39:32;101895.78;;;0.40;100.00
42111;BME280;27766;52.174;5.456;2023-12-07T08:41:59;101905.88;;;0.39;100.00
42111;BME280;27766;52.174;5.456;2023-12-07T08:44:28;101903.22;;;0.37;100.00
42111;BME280;27766;52.174;5.456;2023-12-07T08:46:55;101901.66;;;0.39;100.00
42111;BME280;27766;52.174;5.456;2023-12-07T08:49:22;101898.22;;;0.39;100.00
42111;BME280;27766;52.174;5.456;2023-12-07T08:51:49;101898.69;;;0.45;100.00
42111;BME280;27766;52.174;5.456;2023-12-07T08:54:36;101898.94;;;0.48;100.00
42111;BME280;27766;52.174;5.456;2023-12-07T08:57:03;101900.16;;;0.53;100.00
42111;BME280;27766;52.174;5.456;2023-12-07T08:59:32;101900.41;;;0.56;100.00
42111;BME280;27766;52.174;5.456;2023-12-07T09:01:59;101898.84;;;0.58;100.00
42111;BME280;27766;52.174;5.456;2023-12-07T09:04:27;101898.41;;;0.64;100.00
42111;BME280;27766;52.174;5.456;2023-12-07T09:06:54;101899.34;;;0.65;100.00
42111;BME280;27766;52.174;5.456;2023-12-07T09:09:21;101906.16;;;0.66;100.00
42111;BME280;27766;52.174;5.456;2023-12-07T09:11:49;101904.63;;;0.68;100.00
42111;BME280;27766;52.174;5.456;2023-12-07T09:14:16;101899.00;;;0.72;100.00
42111;BME280;27766;52.174;5.456;2023-12-07T09:16:45;101887.50;;;0.77;100.00
42111;BME280;27766;52.174;5.456;2023-12-07T09:19:13;101886.94;;;0.81;100.00
42111;BME280;27766;52.174;5.456;2023-12-07T09:21:41;101869.41;;;0.74;100.00
42111;BME280;27766;52.174;5.456;2023-12-07T09:24:08;101870.19;;;0.73;100.00
42111;BME280;27766;52.174;5.456;2023-12-07T09:26:35;101872.63;;;0.71;100.00
42111;BME280;27766;52.174;5.456;2023-12-07T09:29:04;101878.72;;;0.73;100.00
42111;BME280;27766;52.174;5.456;2023-12-07T09:31:32;101875.97;;;0.82;100.00
42111;BME280;27766;52.174;5.456;2023-12-07T09:34:00;101871.97;;;0.74;100.00
42111;BME280;27766;52.174;5.456;2023-12-07T09:36:41;101887.06;;;0.83;100.00
42111;BME280;27766;52.174;5.456;2023-12-07T09:39:08;101878.75;;;0.85;100.00
42111;BME280;27766;52.174;5.456;2023-12-07T09:41:39;101877.84;;;0.85;100.00
42111;BME280;27766;52.174;5.456;2023-12-07T09:44:08;101875.63;;;0.77;100.00
42111;BME280;27766;52.174;5.456;2023-12-07T09:46:36;101889.34;;;0.68;100.00
42111;BME280;27766;52.174;5.456;2023-12-07T09:49:05;101888.22;;;0.64;100.00
42111;BME280;27766;52.174;5.456;2023-12-07T09:51:32;101880.91;;;0.57;100.00
42111;BME280;27766;52.174;5.456;2023-12-07T09:54:02;101891.78;;;0.66;100.00
42111;BME280;27766;52.174;5.456;2023-12-07T09:56:32;101887.00;;;0.59;100.00
42111;BME280;27766;52.174;5.456;2023-12-07T09:59:00;101891.47;;;0.73;100.00
42111;BME280;27766;52.174;5.456;2023-12-07T10:01:28;101884.69;;;0.74;100.00
42111;BME280;27766;52.174;5.456;2023-12-07T10:04:19;101887.84;;;0.82;100.00
42111;BME280;27766;52.174;5.456;2023-12-07T10:06:47;101873.06;;;0.77;100.00
42111;BME280;27766;52.174;5.456;2023-12-07T10:09:17;101866.78;;;0.84;100.00
42111;BME280;27766;52.174;5.456;2023-12-07T10:12:05;101854.91;;;0.85;100.00
42111;BME280;27766;52.174;5.456;2023-12-07T10:14:32;101863.03;;;0.91;100.00
42111;BME280;27766;52.174;5.456;2023-12-07T10:17:01;101860.81;;;0.84;100.00
42111;BME280;27766;52.174;5.456;2023-12-07T10:19:28;101844.94;;;0.76;100.00
42111;BME280;27766;52.174;5.456;2023-12-07T10:21:59;101844.84;;;0.86;100.00
42111;BME280;27766;52.174;5.456;2023-12-07T10:24:30;101835.09;;;0.92;100.00
42111;BME280;27766;52.174;5.456;2023-12-07T10:26:58;101828.31;;;0.93;100.00
42111;BME280;27766;52.174;5.456;2023-12-07T10:29:30;101819.91;;;0.94;100.00
42111;BME280;27766;52.174;5.456;2023-12-07T10:32:02;101815.91;;;0.98;100.00
42111;BME280;27766;52.174;5.456;2023-12-07T10:34:32;101821.69;;;0.95;100.00
42111;BME280;27766;52.174;5.456;2023-12-07T10:37:01;101817.59;;;0.97;100.00
42111;BME280;27766;52.174;5.456;2023-12-07T10:39:32;101816.69;;;0.97;100.00
42111;BME280;27766;52.174;5.456;2023-12-07T10:42:03;101823.56;;;0.98;100.00
42111;BME280;27766;52.174;5.456;2023-12-07T10:44:36;101816.25;;;1.02;100.00
42111;BME280;27766;52.174;5.456;2023-12-07T10:47:10;101823.03;;;1.02;100.00
42111;BME280;27766;52.174;5.456;2023-12-07T10:49:40;101816.16;;;1.01;100.00
42111;BME280;27766;52.174;5.456;2023-12-07T10:52:16;101810.81;;;0.98;100.00
42111;BME280;27766;52.174;5.456;2023-12-07T10:57:30;101788.19;;;0.90;100.00
42111;BME280;27766;52.174;5.456;2023-12-07T10:59:59;101791.31;;;0.98;100.00
42111;BME280;27766;52.174;5.456;2023-12-07T11:02:28;101791.09;;;0.95;100.00
42111;BME280;27766;52.174;5.456;2023-12-07T11:04:56;101798.19;;;0.99;100.00
42111;BME280;27766;52.174;5.456;2023-12-07T11:07:25;101803.59;;;1.04;100.00
42111;BME280;27766;52.174;5.456;2023-12-07T11:10:10;101791.41;;;1.00;100.00
42111;BME280;27766;52.174;5.456;2023-12-07T11:12:46;101782.31;;;1.03;100.00
42111;BME280;27766;52.174;5.456;2023-12-07T11:15:17;101784.09;;;1.04;100.00
42111;BME280;27766;52.174;5.456;2023-12-07T11:17:52;101786.75;;;1.06;100.00
42111;BME280;27766;52.174;5.456;2023-12-07T11:20:32;101776.13;;;1.00;100.00
42111;BME280;27766;52.174;5.456;2023-12-07T11:23:07;101776.44;;;1.04;100.00
42111;BME280;27766;52.174;5.456;2023-12-07T11:25:38;101771.13;;;1.01;100.00
42111;BME280;27766;52.174;5.456;2023-12-07T11:28:06;101772.91;;;1.02;100.00
42111;BME280;27766;52.174;5.456;2023-12-07T11:30:35;101762.25;;;1.08;100.00
42111;BME280;27766;52.174;5.456;2023-12-07T11:33:05;101751.28;;;1.09;100.00
42111;BME280;27766;52.174;5.456;2023-12-07T11:38:28;101732.75;;;1.23;100.00
42111;BME280;27766;52.174;5.456;2023-12-07T11:40:56;101734.06;;;1.30;100.00
42111;BME280;27766;52.174;5.456;2023-12-07T11:46:01;101726.06;;;1.37;100.00
42111;BME280;27766;52.174;5.456;2023-12-07T11:48:28;101729.34;;;1.48;100.00
42111;BME280;27766;52.174;5.456;2023-12-07T11:51:04;101714.75;;;1.34;100.00
42111;BME280;27766;52.174;5.456;2023-12-07T11:53:33;101729.53;;;1.51;100.00
42111;BME280;27766;52.174;5.456;2023-12-07T11:58:32;101720.84;;;1.61;100.00
42111;BME280;27766;52.174;5.456;2023-12-07T12:01:05;101718.97;;;1.58;100.00
42111;BME280;27766;52.174;5.456;2023-12-07T12:03:35;101723.06;;;1.68;100.00
42111;BME280;27766;52.174;5.456;2023-12-07T12:06:05;101717.28;;;1.71;100.00
42111;BME280;27766;52.174;5.456;2023-12-07T12:08:33;101698.66;;;1.72;100.00
42111;BME280;27766;52.174;5.456;2023-12-07T12:11:01;101704.53;;;1.71;100.00
42111;BME280;27766;52.174;5.456;2023-12-07T12:13:30;101699.09;;;1.66;100.00
42111;BME280;27766;52.174;5.456;2023-12-07T12:15:58;101701.06;;;1.70;100.00
42111;BME280;27766;52.174;5.456;2023-12-07T12:18:30;101695.19;;;1.71;100.00
42111;BME280;27766;52.174;5.456;2023-12-07T12:20:58;101673.53;;;1.78;100.00
42111;BME280;27766;52.174;5.456;2023-12-07T12:23:26;101677.34;;;1.85;100.00
42111;BME280;27766;52.174;5.456;2023-12-07T12:25:54;101682.22;;;1.94;100.00
42111;BME280;27766;52.174;5.456;2023-12-07T12:28:21;101679.84;;;1.97;100.00
42111;BME280;27766;52.174;5.456;2023-12-07T12:30:51;101671.88;;;1.92;100.00
42111;BME280;27766;52.174;5.456;2023-12-07T12:33:19;101670.53;;;1.97;100.00
42111;BME280;27766;52.174;5.456;2023-12-07T12:35:46;101671.03;;;2.05;100.00
42111;BME280;27766;52.174;5.456;2023-12-07T12:38:13;101667.59;;;2.04;100.00
42111;BME280;27766;52.174;5.456;2023-12-07T12:40:54;101662.00;;;2.10;100.00
42111;BME280;27766;52.174;5.456;2023-12-07T12:43:21;101641.75;;;2.13;100.00
42111;BME280;27766;52.174;5.456;2023-12-07T12:45:49;101649.72;;;2.18;100.00
42111;BME280;27766;52.174;5.456;2023-12-07T12:48:32;101650.72;;;2.20;100.00
42111;BME280;27766;52.174;5.456;2023-12-07T12:51:08;101636.66;;;2.27;100.00
42111;BME280;27766;52.174;5.456;2023-12-07T12:53:35;101629.19;;;2.30;100.00
42111;BME280;27766;52.174;5.456;2023-12-07T12:56:07;101622.13;;;2.26;100.00
42111;BME280;27766;52.174;5.456;2023-12-07T12:58:35;101611.09;;;2.27;100.00
42111;BME280;27766;52.174;5.456;2023-12-07T13:01:02;101614.84;;;2.32;100.00
42111;BME280;27766;52.174;5.456;2023-12-07T13:03:31;101593.63;;;2.33;100.00
42111;BME280;27766;52.174;5.456;2023-12-07T13:05:58;101588.91;;;2.39;100.00
42111;BME280;27766;52.174;5.456;2023-12-07T13:08:29;101596.19;;;2.46;100.00
42111;BME280;27766;52.174;5.456;2023-12-07T13:11:00;101571.03;;;2.39;100.00
42111;BME280;27766;52.174;5.456;2023-12-07T13:13:27;101567.78;;;2.42;100.00
42111;BME280;27766;52.174;5.456;2023-12-07T13:15:55;101576.59;;;2.47;100.00
42111;BME280;27766;52.174;5.456;2023-12-07T13:18:22;101575.41;;;2.55;100.00
42111;BME280;27766;52.174;5.456;2023-12-07T13:20:49;101568.72;;;2.57;100.00
42111;BME280;27766;52.174;5.456;2023-12-07T13:23:22;101559.09;;;2.66;100.00
42111;BME280;27766;52.174;5.456;2023-12-07T13:25:49;101549.44;;;2.76;100.00
42111;BME280;27766;52.174;5.456;2023-12-07T13:28:17;101541.06;;;2.78;100.00
42111;BME280;27766;52.174;5.456;2023-12-07T13:30:45;101535.81;;;2.77;100.00
42111;BME280;27766;52.174;5.456;2023-12-07T13:33:12;101535.31;;;2.82;100.00
42111;BME280;27766;52.174;5.456;2023-12-07T13:35:53;101540.03;;;2.90;100.00
42111;BME280;27766;52.174;5.456;2023-12-07T13:38:22;101546.13;;;2.92;100.00
42111;BME280;27766;52.174;5.456;2023-12-07T13:40:51;101548.88;;;2.95;100.00
42111;BME280;27766;52.174;5.456;2023-12-07T13:43:18;101538.25;;;2.89;100.00
42111;BME280;27766;52.174;5.456;2023-12-07T13:45:45;101535.19;;;2.94;100.00
42111;BME280;27766;52.174;5.456;2023-12-07T13:48:13;101538.03;;;2.99;100.00
42111;BME280;27766;52.174;5.456;2023-12-07T13:50:43;101542.78;;;2.93;100.00
42111;BME280;27766;52.174;5.456;2023-12-07T13:53:11;101528.22;;;2.92;100.00
42111;BME280;27766;52.174;5.456;2023-12-07T13:55:39;101513.88;;;2.80;100.00
42111;BME280;27766;52.174;5.456;2023-12-07T13:58:07;101520.34;;;2.89;100.00
42111;BME280;27766;52.174;5.456;2023-12-07T14:00:34;101508.47;;;2.89;100.00
42111;BME280;27766;52.174;5.456;2023-12-07T14:03:02;101509.69;;;2.96;100.00
42111;BME280;27766;52.174;5.456;2023-12-07T14:05:31;101485.88;;;2.82;100.00
42111;BME280;27766;52.174;5.456;2023-12-07T14:07:58;101504.31;;;2.91;100.00
42111;BME280;27766;52.174;5.456;2023-12-07T14:10:25;101503.91;;;2.98;100.00
42111;BME280;27766;52.174;5.456;2023-12-07T14:12:55;101489.59;;;2.87;100.00
42111;BME280;27766;52.174;5.456;2023-12-07T14:15:22;101494.34;;;2.96;100.00
42111;BME280;27766;52.174;5.456;2023-12-07T14:18:08;101491.78;;;2.96;100.00
42111;BME280;27766;52.174;5.456;2023-12-07T14:20:36;101487.72;;;2.84;100.00
42111;BME280;27766;52.174;5.456;2023-12-07T14:23:23;101489.13;;;2.79;100.00
42111;BME280;27766;52.174;5.456;2023-12-07T14:25:50;101485.50;;;2.76;100.00
42111;BME280;27766;52.174;5.456;2023-12-07T14:28:18;101481.28;;;2.76;100.00
42111;BME280;27766;52.174;5.456;2023-12-07T14:30:46;101477.13;;;2.78;100.00
42111;BME280;27766;52.174;5.456;2023-12-07T14:33:13;101484.41;;;2.72;100.00
42111;BME280;27766;52.174;5.456;2023-12-07T14:35:41;101489.53;;;2.72;100.00
42111;BME280;27766;52.174;5.456;2023-12-07T14:38:08;101485.03;;;2.68;100.00
42111;BME280;27766;52.174;5.456;2023-12-07T14:40:35;101491.28;;;2.73;100.00
42111;BME280;27766;52.174;5.456;2023-12-07T14:43:02;101489.13;;;2.79;100.00
42111;BME280;27766;52.174;5.456;2023-12-07T14:45:31;101477.72;;;2.74;100.00
42111;BME280;27766;52.174;5.456;2023-12-07T14:47:58;101477.44;;;2.69;100.00
42111;BME280;27766;52.174;5.456;2023-12-07T14:50:25;101478.63;;;2.75;100.00
42111;BME280;27766;52.174;5.456;2023-12-07T14:52:52;101485.22;;;2.71;100.00
42111;BME280;27766;52.174;5.456;2023-12-07T14:55:20;101477.84;;;2.76;100.00
42111;BME280;27766;52.174;5.456;2023-12-07T14:57:47;101470.06;;;2.74;100.00
42111;BME280;27766;52.174;5.456;2023-12-07T15:00:16;101462.31;;;2.73;100.00
42111;BME280;27766;52.174;5.456;2023-12-07T15:02:45;101458.97;;;2.74;100.00
42111;BME280;27766;52.174;5.456;2023-12-07T15:05:12;101463.00;;;2.70;100.00
42111;BME280;27766;52.174;5.456;2023-12-07T15:07:39;101459.38;;;2.66;100.00
42111;BME280;27766;52.174;5.456;2023-12-07T15:10:07;101456.84;;;2.66;100.00
42111;BME280;27766;52.174;5.456;2023-12-07T15:12:35;101457.69;;;2.67;100.00
42111;BME280;27766;52.174;5.456;2023-12-07T15:15:02;101444.47;;;2.59;100.00
42111;BME280;27766;52.174;5.456;2023-12-07T15:17:33;101443.28;;;2.54;100.00
42111;BME280;27766;52.174;5.456;2023-12-07T15:20:01;101441.44;;;2.51;100.00
42111;BME280;27766;52.174;5.456;2023-12-07T15:22:31;101445.34;;;2.60;100.00
42111;BME280;27766;52.174;5.456;2023-12-07T15:24:58;101429.84;;;2.57;100.00
42111;BME280;27766;52.174;5.456;2023-12-07T15:27:26;101431.41;;;2.55;100.00
42111;BME280;27766;52.174;5.456;2023-12-07T15:29:53;101422.22;;;2.43;100.00
42111;BME280;27766;52.174;5.456;2023-12-07T15:32:21;101407.41;;;2.37;100.00
42111;BME280;27766;52.174;5.456;2023-12-07T15:34:48;101416.94;;;2.40;100.00
42111;BME280;27766;52.174;5.456;2023-12-07T15:37:15;101404.31;;;2.43;100.00
42111;BME280;27766;52.174;5.456;2023-12-07T15:39:45;101409.16;;;2.38;100.00
42111;BME280;27766;52.174;5.456;2023-12-07T15:42:12;101406.72;;;2.40;100.00
42111;BME280;27766;52.174;5.456;2023-12-07T15:44:39;101410.41;;;2.45;100.00
42111;BME280;27766;52.174;5.456;2023-12-07T15:47:07;101406.28;;;2.47;100.00
42111;BME280;27766;52.174;5.456;2023-12-07T15:49:35;101405.38;;;2.47;100.00
42111;BME280;27766;52.174;5.456;2023-12-07T15:52:04;101399.84;;;2.39;100.00
42111;BME280;27766;52.174;5.456;2023-12-07T15:54:31;101388.19;;;2.44;100.00